createdAt,value
2022-07-31T00:00:41.396Z,0.00
2022-07-31T00:01:41.394Z,0.00
2022-07-31T00:02:41.387Z,0.00
2022-07-31T00:03:41.427Z,0.00
2022-07-31T00:04:41.381Z,0.00
2022-07-31T00:05:41.933Z,0.00
2022-07-31T00:06:41.377Z,0.00
2022-07-31T00:07:41.374Z,0.00
2022-07-31T00:08:41.369Z,0.00
2022-07-31T00:09:53.332Z,0.00
2022-07-31T00:10:41.362Z,0.00
2022-07-31T00:11:41.362Z,0.00
2022-07-31T00:12:41.358Z,0.00
2022-07-31T00:13:57.527Z,0.00
2022-07-31T00:14:41.355Z,0.00
2022-07-31T00:15:41.349Z,0.00
2022-07-31T00:16:41.346Z,0.00
2022-07-31T00:17:41.346Z,0.00
2022-07-31T00:18:41.341Z,0.00
2022-07-31T00:19:41.340Z,0.00
2022-07-31T00:20:41.335Z,0.00
2022-07-31T00:21:41.332Z,0.00
2022-07-31T00:22:41.330Z,0.00
2022-07-31T00:23:41.326Z,0.00
2022-07-31T00:24:41.322Z,0.00
2022-07-31T00:25:41.321Z,0.00
2022-07-31T00:26:41.317Z,0.00
2022-07-31T00:27:41.316Z,0.00
2022-07-31T00:28:41.311Z,0.00
2022-07-31T00:29:41.305Z,0.00
2022-07-31T00:30:41.306Z,0.00
2022-07-31T00:31:41.303Z,0.00
2022-07-31T00:32:41.300Z,0.00
2022-07-31T00:33:41.296Z,0.00
2022-07-31T00:34:41.293Z,0.00
2022-07-31T00:35:41.291Z,0.00
2022-07-31T00:36:41.287Z,0.00
2022-07-31T00:37:41.465Z,0.00
2022-07-31T00:38:41.282Z,0.00
2022-07-31T00:39:41.279Z,0.00
2022-07-31T00:40:41.274Z,0.00
2022-07-31T00:41:41.272Z,0.00
2022-07-31T00:42:41.270Z,0.00
2022-07-31T00:43:41.268Z,0.00
2022-07-31T00:44:41.263Z,0.00
2022-07-31T00:45:41.261Z,0.00
2022-07-31T00:46:41.259Z,0.00
2022-07-31T00:47:41.254Z,0.00
2022-07-31T00:48:41.251Z,0.00
2022-07-31T00:49:41.249Z,0.00
2022-07-31T00:50:41.248Z,0.00
2022-07-31T00:51:41.242Z,0.00
2022-07-31T00:52:41.241Z,0.00
2022-07-31T00:53:41.237Z,0.00
2022-07-31T00:54:41.233Z,0.00
2022-07-31T00:55:51.479Z,0.00
2022-07-31T00:56:41.225Z,0.00
2022-07-31T00:57:41.223Z,0.00
2022-07-31T00:58:41.219Z,0.00
2022-07-31T00:59:41.218Z,0.00
2022-07-31T01:00:41.234Z,0.00
2022-07-31T01:01:41.300Z,0.00
2022-07-31T01:02:46.618Z,0.00
2022-07-31T01:03:41.203Z,0.00
2022-07-31T01:04:41.635Z,0.00
2022-07-31T01:05:41.196Z,0.00
2022-07-31T01:06:42.742Z,0.00
2022-07-31T01:07:41.190Z,0.00
2022-07-31T01:08:41.188Z,0.00
2022-07-31T01:09:41.182Z,0.00
2022-07-31T01:10:41.179Z,0.00
2022-07-31T01:11:41.176Z,0.00
2022-07-31T01:12:41.171Z,0.00
2022-07-31T01:13:41.169Z,0.00
2022-07-31T01:14:41.164Z,0.00
2022-07-31T01:15:41.163Z,0.00
2022-07-31T01:16:41.167Z,0.00
2022-07-31T01:17:41.157Z,0.00
2022-07-31T01:18:41.153Z,0.00
2022-07-31T01:19:42.812Z,0.00
2022-07-31T01:20:41.146Z,0.00
2022-07-31T01:21:41.143Z,0.00
2022-07-31T01:22:41.139Z,0.00
2022-07-31T01:23:41.135Z,0.00
2022-07-31T01:24:41.134Z,0.00
2022-07-31T01:25:41.129Z,0.00
2022-07-31T01:26:41.125Z,0.00
2022-07-31T01:27:49.215Z,0.00
2022-07-31T01:28:41.118Z,0.00
2022-07-31T01:29:41.116Z,0.00
2022-07-31T01:30:41.112Z,0.00
2022-07-31T01:31:41.114Z,0.00
2022-07-31T01:32:41.105Z,0.00
2022-07-31T01:33:41.103Z,0.00
2022-07-31T01:34:41.099Z,0.00
2022-07-31T01:35:41.095Z,0.00
2022-07-31T01:36:41.090Z,0.00
2022-07-31T01:37:41.088Z,0.00
2022-07-31T01:38:45.271Z,0.00
2022-07-31T01:39:41.080Z,0.00
2022-07-31T01:40:41.078Z,0.00
2022-07-31T01:41:41.071Z,0.00
2022-07-31T01:42:41.071Z,0.00
2022-07-31T01:43:41.066Z,0.00
2022-07-31T01:44:41.061Z,0.00
2022-07-31T01:45:41.060Z,0.00
2022-07-31T01:46:41.470Z,0.00
2022-07-31T01:47:41.050Z,0.00
2022-07-31T01:48:41.045Z,0.00
2022-07-31T01:49:41.043Z,0.00
2022-07-31T01:50:43.069Z,0.00
2022-07-31T01:51:41.036Z,0.00
2022-07-31T01:52:41.030Z,0.00
2022-07-31T01:53:41.031Z,0.00
2022-07-31T01:54:41.024Z,0.00
2022-07-31T01:55:56.447Z,0.00
2022-07-31T01:56:41.019Z,0.00
2022-07-31T01:57:41.019Z,0.00
2022-07-31T01:58:41.009Z,0.00
2022-07-31T01:59:44.787Z,0.00
2022-07-31T02:00:41.130Z,0.00
2022-07-31T02:01:41.081Z,0.00
2022-07-31T02:02:42.383Z,0.00
2022-07-31T02:03:44.245Z,0.00
2022-07-31T02:04:40.988Z,0.00
2022-07-31T02:05:40.984Z,0.00
2022-07-31T02:06:40.981Z,0.00
2022-07-31T02:07:40.978Z,0.00
2022-07-31T02:08:40.970Z,0.00
2022-07-31T02:09:52.298Z,0.00
2022-07-31T02:10:40.962Z,0.00
2022-07-31T02:11:53.790Z,0.00
2022-07-31T02:12:40.959Z,0.00
2022-07-31T02:13:40.955Z,0.00
2022-07-31T02:14:40.949Z,0.00
2022-07-31T02:15:40.946Z,0.00
2022-07-31T02:16:40.940Z,0.00
2022-07-31T02:17:40.939Z,0.00
2022-07-31T02:18:40.935Z,0.00
2022-07-31T02:19:40.931Z,0.00
2022-07-31T02:20:40.925Z,0.00
2022-07-31T02:21:40.924Z,0.00
2022-07-31T02:22:40.919Z,0.00
2022-07-31T02:23:40.916Z,0.00
2022-07-31T02:24:40.913Z,0.00
2022-07-31T02:25:40.908Z,0.00
2022-07-31T02:26:40.906Z,0.00
2022-07-31T02:27:57.158Z,0.00
2022-07-31T02:28:40.898Z,0.00
2022-07-31T02:29:40.892Z,0.00
2022-07-31T02:30:40.889Z,0.00
2022-07-31T02:31:40.885Z,0.00
2022-07-31T02:32:40.881Z,0.00
2022-07-31T02:33:40.968Z,0.00
2022-07-31T02:34:40.873Z,0.00
2022-07-31T02:35:44.043Z,0.00
2022-07-31T02:36:40.865Z,0.00
2022-07-31T02:37:40.861Z,0.00
2022-07-31T02:38:40.857Z,0.00
2022-07-31T02:39:40.853Z,0.00
2022-07-31T02:40:41.229Z,0.00
2022-07-31T02:41:40.846Z,0.00
2022-07-31T02:42:40.842Z,0.00
2022-07-31T02:43:40.837Z,0.00
2022-07-31T02:44:40.833Z,0.00
2022-07-31T02:45:40.826Z,0.00
2022-07-31T02:46:40.826Z,0.00
2022-07-31T02:47:40.821Z,0.00
2022-07-31T02:48:40.817Z,0.00
2022-07-31T02:49:40.816Z,0.00
2022-07-31T02:50:40.809Z,0.00
2022-07-31T02:51:43.570Z,0.00
2022-07-31T02:52:40.805Z,0.00
2022-07-31T02:53:40.798Z,0.00
2022-07-31T02:54:40.795Z,0.00
2022-07-31T02:55:40.795Z,0.00
2022-07-31T02:56:40.786Z,0.00
2022-07-31T02:57:40.782Z,0.00
2022-07-31T02:58:40.778Z,0.00
2022-07-31T02:59:40.776Z,0.00
2022-07-31T03:00:40.803Z,0.00
2022-07-31T03:01:40.838Z,0.00
2022-07-31T03:02:40.762Z,0.00
2022-07-31T03:03:40.758Z,0.00
2022-07-31T03:04:40.754Z,0.00
2022-07-31T03:05:40.752Z,0.00
2022-07-31T03:06:40.746Z,0.00
2022-07-31T03:07:40.744Z,0.00
2022-07-31T03:08:40.746Z,0.00
2022-07-31T03:09:40.731Z,0.00
2022-07-31T03:10:40.728Z,0.00
2022-07-31T03:11:40.789Z,0.00
2022-07-31T03:12:40.719Z,0.00
2022-07-31T03:13:40.719Z,0.00
2022-07-31T03:14:40.716Z,0.00
2022-07-31T03:15:40.707Z,0.00
2022-07-31T03:16:40.701Z,0.00
2022-07-31T03:17:41.254Z,0.00
2022-07-31T03:18:40.696Z,0.00
2022-07-31T03:19:40.691Z,0.00
2022-07-31T03:20:40.686Z,0.00
2022-07-31T03:21:40.700Z,0.00
2022-07-31T03:22:40.678Z,5.63
2022-07-31T03:23:40.677Z,5.63
2022-07-31T03:24:40.668Z,5.63
2022-07-31T03:25:40.666Z,5.63
2022-07-31T03:26:40.659Z,5.63
2022-07-31T03:27:40.660Z,5.63
2022-07-31T03:28:40.656Z,5.63
2022-07-31T03:29:43.457Z,5.63
2022-07-31T03:30:40.644Z,5.63
2022-07-31T03:31:40.640Z,5.63
2022-07-31T03:32:40.634Z,11.25
2022-07-31T03:33:40.631Z,11.25
2022-07-31T03:34:40.627Z,11.25
2022-07-31T03:35:44.622Z,11.25
2022-07-31T03:36:40.618Z,11.25
2022-07-31T03:37:40.614Z,16.88
2022-07-31T03:38:43.340Z,16.88
2022-07-31T03:39:40.603Z,16.88
2022-07-31T03:40:40.603Z,16.88
2022-07-31T03:41:40.597Z,22.50
2022-07-31T03:42:40.589Z,22.50
2022-07-31T03:43:44.409Z,22.50
2022-07-31T03:44:40.582Z,22.50
2022-07-31T03:45:40.576Z,28.13
2022-07-31T03:46:40.571Z,28.13
2022-07-31T03:47:40.569Z,33.75
2022-07-31T03:48:40.563Z,39.38
2022-07-31T03:49:40.559Z,39.38
2022-07-31T03:50:40.557Z,39.38
2022-07-31T03:51:40.554Z,45.00
2022-07-31T03:52:40.549Z,45.00
2022-07-31T03:53:40.546Z,50.63
2022-07-31T03:54:40.537Z,50.63
2022-07-31T03:55:40.540Z,56.25
2022-07-31T03:56:40.527Z,56.25
2022-07-31T03:57:40.524Z,56.25
2022-07-31T03:58:40.521Z,61.88
2022-07-31T03:59:48.422Z,61.88
2022-07-31T04:00:40.513Z,61.88
2022-07-31T04:01:56.766Z,56.25
2022-07-31T04:02:40.552Z,61.88
2022-07-31T04:03:40.497Z,61.88
2022-07-31T04:04:40.493Z,67.50
2022-07-31T04:05:40.489Z,67.50
2022-07-31T04:06:40.486Z,67.50
2022-07-31T04:07:40.479Z,73.13
2022-07-31T04:08:40.475Z,78.75
2022-07-31T04:09:40.472Z,84.38
2022-07-31T04:10:40.471Z,90.00
2022-07-31T04:11:40.463Z,90.00
2022-07-31T04:12:40.458Z,95.63
2022-07-31T04:13:40.452Z,101.25
2022-07-31T04:14:40.449Z,106.88
2022-07-31T04:15:40.445Z,112.50
2022-07-31T04:16:40.441Z,112.50
2022-07-31T04:17:40.437Z,118.13
2022-07-31T04:18:40.432Z,123.75
2022-07-31T04:19:40.427Z,123.75
2022-07-31T04:20:40.422Z,129.38
2022-07-31T04:21:40.421Z,135.00
2022-07-31T04:22:40.415Z,135.00
2022-07-31T04:23:40.409Z,140.63
2022-07-31T04:24:40.405Z,140.63
2022-07-31T04:25:40.401Z,146.25
2022-07-31T04:26:40.398Z,151.88
2022-07-31T04:27:47.893Z,157.50
2022-07-31T04:28:40.394Z,163.13
2022-07-31T04:29:40.387Z,168.75
2022-07-31T04:30:40.383Z,174.38
2022-07-31T04:31:40.377Z,185.63
2022-07-31T04:32:40.373Z,196.88
2022-07-31T04:33:46.516Z,208.13
2022-07-31T04:34:40.366Z,219.38
2022-07-31T04:35:40.363Z,225.00
2022-07-31T04:36:40.357Z,230.63
2022-07-31T04:37:40.355Z,236.25
2022-07-31T04:38:40.352Z,236.25
2022-07-31T04:39:40.348Z,241.88
2022-07-31T04:40:40.341Z,241.88
2022-07-31T04:41:40.339Z,247.50
2022-07-31T04:42:40.337Z,253.13
2022-07-31T04:43:40.333Z,253.13
2022-07-31T04:44:40.329Z,258.75
2022-07-31T04:45:40.325Z,264.38
2022-07-31T04:46:40.322Z,264.38
2022-07-31T04:47:40.319Z,270.00
2022-07-31T04:48:41.328Z,270.00
2022-07-31T04:49:40.315Z,270.00
2022-07-31T04:50:40.310Z,275.63
2022-07-31T04:51:40.308Z,275.63
2022-07-31T04:52:40.304Z,281.25
2022-07-31T04:53:40.300Z,281.25
2022-07-31T04:54:40.299Z,286.88
2022-07-31T04:55:40.300Z,286.88
2022-07-31T04:56:40.290Z,286.88
2022-07-31T04:57:40.289Z,292.50
2022-07-31T04:58:40.287Z,292.50
2022-07-31T04:59:59.830Z,292.50
2022-07-31T05:00:40.283Z,298.13
2022-07-31T05:01:40.338Z,298.13
2022-07-31T05:02:40.277Z,298.13
2022-07-31T05:03:40.275Z,303.75
2022-07-31T05:04:40.272Z,303.75
2022-07-31T05:05:40.273Z,309.38
2022-07-31T05:06:40.268Z,309.38
2022-07-31T05:07:40.267Z,309.38
2022-07-31T05:08:40.265Z,309.38
2022-07-31T05:09:40.264Z,309.38
2022-07-31T05:10:40.261Z,309.38
2022-07-31T05:11:40.260Z,315.00
2022-07-31T05:12:40.257Z,315.00
2022-07-31T05:13:40.257Z,315.00
2022-07-31T05:14:40.256Z,315.00
2022-07-31T05:15:40.257Z,315.00
2022-07-31T05:16:40.253Z,320.63
2022-07-31T05:17:40.251Z,320.63
2022-07-31T05:18:40.250Z,320.63
2022-07-31T05:19:40.251Z,326.25
2022-07-31T05:20:40.248Z,326.25
2022-07-31T05:21:53.144Z,326.25
2022-07-31T05:22:40.247Z,331.88
2022-07-31T05:23:40.248Z,331.88
2022-07-31T05:24:40.246Z,337.50
2022-07-31T05:25:40.245Z,337.50
2022-07-31T05:26:40.246Z,337.50
2022-07-31T05:27:41.339Z,337.50
2022-07-31T05:28:40.243Z,343.13
2022-07-31T05:29:40.243Z,343.13
2022-07-31T05:30:40.245Z,343.13
2022-07-31T05:31:40.245Z,343.13
2022-07-31T05:32:40.246Z,343.13
2022-07-31T05:33:40.242Z,343.13
2022-07-31T05:34:40.245Z,348.75
2022-07-31T05:35:40.258Z,348.75
2022-07-31T05:36:40.243Z,348.75
2022-07-31T05:37:40.245Z,354.38
2022-07-31T05:38:40.246Z,354.38
2022-07-31T05:39:40.243Z,360.00
2022-07-31T05:40:40.244Z,360.00
2022-07-31T05:41:40.245Z,360.00
2022-07-31T05:42:40.246Z,360.00
2022-07-31T05:43:40.248Z,360.00
2022-07-31T05:44:40.249Z,360.00
2022-07-31T05:45:40.246Z,365.63
2022-07-31T05:46:40.249Z,371.25
2022-07-31T05:47:41.153Z,371.25
2022-07-31T05:48:40.247Z,371.25
2022-07-31T05:49:40.252Z,376.88
2022-07-31T05:50:40.248Z,376.88
2022-07-31T05:51:40.250Z,382.50
2022-07-31T05:52:40.248Z,382.50
2022-07-31T05:53:40.249Z,388.13
2022-07-31T05:54:40.251Z,388.13
2022-07-31T05:55:40.252Z,393.75
2022-07-31T05:56:40.252Z,393.75
2022-07-31T05:57:40.251Z,393.75
2022-07-31T05:58:40.252Z,393.75
2022-07-31T05:59:40.253Z,393.75
2022-07-31T06:00:40.255Z,393.75
2022-07-31T06:01:40.313Z,393.75
2022-07-31T06:02:40.258Z,393.75
2022-07-31T06:03:52.131Z,393.75
2022-07-31T06:04:40.256Z,393.75
2022-07-31T06:05:40.259Z,399.38
2022-07-31T06:06:40.259Z,405.00
2022-07-31T06:07:40.260Z,410.63
2022-07-31T06:08:40.262Z,416.25
2022-07-31T06:09:40.271Z,421.88
2022-07-31T06:10:40.275Z,427.50
2022-07-31T06:11:40.267Z,438.75
2022-07-31T06:12:40.267Z,455.63
2022-07-31T06:13:40.267Z,472.50
2022-07-31T06:14:40.272Z,495.00
2022-07-31T06:15:40.271Z,517.50
2022-07-31T06:16:40.271Z,568.13
2022-07-31T06:17:44.508Z,765.00
2022-07-31T06:18:40.276Z,1096.88
2022-07-31T06:19:40.280Z,1310.63
2022-07-31T06:20:40.282Z,1350.00
2022-07-31T06:21:40.282Z,1366.88
2022-07-31T06:22:40.280Z,1361.25
2022-07-31T06:23:40.289Z,1355.63
2022-07-31T06:24:42.562Z,1389.38
2022-07-31T06:25:40.297Z,1473.75
2022-07-31T06:26:40.290Z,1546.88
2022-07-31T06:27:40.292Z,1563.75
2022-07-31T06:28:48.161Z,1535.63
2022-07-31T06:29:41.655Z,1530.00
2022-07-31T06:30:40.301Z,1558.13
2022-07-31T06:31:40.305Z,1569.38
2022-07-31T06:32:40.304Z,1586.25
2022-07-31T06:33:40.306Z,1614.38
2022-07-31T06:34:40.309Z,1653.75
2022-07-31T06:35:40.313Z,1715.63
2022-07-31T06:36:40.316Z,1721.25
2022-07-31T06:37:40.316Z,1698.75
2022-07-31T06:38:40.320Z,1704.38
2022-07-31T06:39:55.659Z,1726.88
2022-07-31T06:40:40.325Z,1783.13
2022-07-31T06:41:40.327Z,1845.00
2022-07-31T06:42:40.333Z,1861.88
2022-07-31T06:43:40.335Z,1833.75
2022-07-31T06:44:40.479Z,1794.38
2022-07-31T06:45:51.079Z,1805.63
2022-07-31T06:46:48.609Z,1828.13
2022-07-31T06:47:40.346Z,1811.25
2022-07-31T06:48:40.348Z,1755.00
2022-07-31T06:49:40.410Z,1749.38
2022-07-31T06:50:40.355Z,1771.88
2022-07-31T06:51:40.357Z,1766.25
2022-07-31T06:52:40.365Z,1766.25
2022-07-31T06:53:40.363Z,1833.75
2022-07-31T06:54:40.369Z,1935.00
2022-07-31T06:55:44.544Z,2002.50
2022-07-31T06:56:40.377Z,2008.13
2022-07-31T06:57:40.378Z,1996.88
2022-07-31T06:58:40.381Z,1946.25
2022-07-31T06:59:40.878Z,1935.00
2022-07-31T07:00:40.389Z,1968.75
2022-07-31T07:01:40.569Z,2030.63
2022-07-31T07:02:40.398Z,2070.00
2022-07-31T07:03:40.399Z,2098.13
2022-07-31T07:05:01.530Z,2081.25
2022-07-31T07:05:45.019Z,2058.75
2022-07-31T07:06:40.412Z,2053.13
2022-07-31T07:07:40.418Z,2070.00
2022-07-31T07:08:40.419Z,2109.38
2022-07-31T07:09:40.425Z,2165.63
2022-07-31T07:10:40.429Z,2227.50
2022-07-31T07:11:40.434Z,2238.75
2022-07-31T07:12:40.439Z,2188.13
2022-07-31T07:13:45.732Z,2098.13
2022-07-31T07:14:40.448Z,2013.75
2022-07-31T07:15:40.455Z,2019.38
2022-07-31T07:16:40.454Z,2098.13
2022-07-31T07:17:40.460Z,2176.88
2022-07-31T07:18:40.467Z,2210.63
2022-07-31T07:19:40.471Z,2244.38
2022-07-31T07:20:40.475Z,2250.00
2022-07-31T07:21:40.476Z,2244.38
2022-07-31T07:22:40.482Z,2407.50
2022-07-31T07:23:40.487Z,2379.38
2022-07-31T07:24:40.493Z,2266.88
2022-07-31T07:25:40.497Z,2115.00
2022-07-31T07:26:40.502Z,1991.25
2022-07-31T07:27:40.505Z,1935.00
2022-07-31T07:28:40.510Z,1923.75
2022-07-31T07:29:40.516Z,1935.00
2022-07-31T07:30:40.520Z,1957.50
2022-07-31T07:31:40.528Z,2002.50
2022-07-31T07:32:40.531Z,2086.88
2022-07-31T07:33:42.763Z,2182.50
2022-07-31T07:34:40.543Z,2283.75
2022-07-31T07:35:40.546Z,2424.38
2022-07-31T07:36:40.552Z,2593.13
2022-07-31T07:37:40.558Z,2711.25
2022-07-31T07:38:40.563Z,2745.00
2022-07-31T07:39:40.568Z,2722.50
2022-07-31T07:40:40.574Z,2716.88
2022-07-31T07:41:40.579Z,2739.38
2022-07-31T07:42:40.585Z,2761.88
2022-07-31T07:43:40.592Z,2761.88
2022-07-31T07:44:40.596Z,2688.75
2022-07-31T07:45:40.603Z,2559.38
2022-07-31T07:46:40.609Z,2418.75
2022-07-31T07:48:05.198Z,2401.88
2022-07-31T07:48:40.622Z,2508.75
2022-07-31T07:49:40.627Z,2683.13
2022-07-31T07:50:40.636Z,2784.38
2022-07-31T07:51:59.118Z,2773.13
2022-07-31T07:52:43.856Z,2739.38
2022-07-31T07:53:40.663Z,2103.75
2022-07-31T07:54:40.676Z,1648.13
2022-07-31T07:55:40.670Z,2148.75
2022-07-31T07:56:40.671Z,2053.13
2022-07-31T07:57:40.679Z,2098.13
2022-07-31T07:58:40.686Z,1940.63
2022-07-31T07:59:40.697Z,3060.00
2022-07-31T08:00:40.847Z,1535.63
2022-07-31T08:01:40.777Z,1980.00
2022-07-31T08:02:40.714Z,2356.88
2022-07-31T08:03:48.460Z,1653.75
2022-07-31T08:04:43.587Z,2126.25
2022-07-31T08:05:40.733Z,1912.50
2022-07-31T08:06:40.740Z,2283.75
2022-07-31T08:07:42.147Z,1951.88
2022-07-31T08:08:40.751Z,2649.38
2022-07-31T08:09:40.758Z,2745.00
2022-07-31T08:10:40.765Z,2829.38
2022-07-31T08:11:40.770Z,2829.38
2022-07-31T08:12:40.776Z,2801.25
2022-07-31T08:13:41.011Z,2750.63
2022-07-31T08:14:40.788Z,2750.63
2022-07-31T08:15:40.796Z,2210.63
2022-07-31T08:16:40.801Z,793.13
2022-07-31T08:17:40.806Z,343.13
2022-07-31T08:18:40.812Z,331.88
2022-07-31T08:19:40.819Z,315.00
2022-07-31T08:20:40.824Z,303.75
2022-07-31T08:21:40.828Z,298.13
2022-07-31T08:22:40.836Z,298.13
2022-07-31T08:23:40.841Z,292.50
2022-07-31T08:24:40.850Z,292.50
2022-07-31T08:25:40.851Z,286.88
2022-07-31T08:26:40.858Z,286.88
2022-07-31T08:27:40.863Z,286.88
2022-07-31T08:28:41.465Z,281.25
2022-07-31T08:29:40.872Z,281.25
2022-07-31T08:30:40.878Z,281.25
2022-07-31T08:31:40.882Z,275.63
2022-07-31T08:32:40.885Z,275.63
2022-07-31T08:33:40.891Z,275.63
2022-07-31T08:34:42.261Z,275.63
2022-07-31T08:35:40.901Z,270.00
2022-07-31T08:36:40.903Z,270.00
2022-07-31T08:38:01.602Z,270.00
2022-07-31T08:38:40.911Z,270.00
2022-07-31T08:39:40.916Z,270.00
2022-07-31T08:40:43.272Z,264.38
2022-07-31T08:41:40.919Z,270.00
2022-07-31T08:42:40.927Z,270.00
2022-07-31T08:44:02.285Z,270.00
2022-07-31T08:44:40.931Z,275.63
2022-07-31T08:45:40.934Z,292.50
2022-07-31T08:46:40.976Z,652.50
2022-07-31T08:47:40.939Z,2098.13
2022-07-31T08:48:40.944Z,3301.88
2022-07-31T08:49:41.013Z,3521.25
2022-07-31T08:50:40.950Z,3543.75
2022-07-31T08:51:52.532Z,3470.63
2022-07-31T08:52:40.955Z,3301.88
2022-07-31T08:53:40.958Z,2868.75
2022-07-31T08:54:40.961Z,1001.25
2022-07-31T08:55:56.200Z,978.75
2022-07-31T08:56:40.965Z,1305.00
2022-07-31T08:57:40.971Z,2452.50
2022-07-31T08:58:40.974Z,3301.88
2022-07-31T08:59:40.976Z,2677.50
2022-07-31T09:00:41.002Z,1153.13
2022-07-31T09:01:41.076Z,376.88
2022-07-31T09:02:40.989Z,292.50
2022-07-31T09:03:40.993Z,281.25
2022-07-31T09:04:40.996Z,275.63
2022-07-31T09:05:41.959Z,264.38
2022-07-31T09:06:41.006Z,258.75
2022-07-31T09:07:41.005Z,253.13
2022-07-31T09:08:41.008Z,253.13
2022-07-31T09:09:51.113Z,247.50
2022-07-31T09:10:41.822Z,247.50
2022-07-31T09:11:41.019Z,241.88
2022-07-31T09:12:41.021Z,241.88
2022-07-31T09:13:41.024Z,241.88
2022-07-31T09:14:41.027Z,241.88
2022-07-31T09:15:41.032Z,241.88
2022-07-31T09:16:41.031Z,236.25
2022-07-31T09:17:41.036Z,236.25
2022-07-31T09:18:41.037Z,236.25
2022-07-31T09:19:52.080Z,241.88
2022-07-31T09:20:41.041Z,247.50
2022-07-31T09:21:41.046Z,253.13
2022-07-31T09:22:41.047Z,253.13
2022-07-31T09:23:41.048Z,253.13
2022-07-31T09:24:41.052Z,253.13
2022-07-31T09:25:41.054Z,253.13
2022-07-31T09:26:41.085Z,247.50
2022-07-31T09:27:41.061Z,241.88
2022-07-31T09:28:41.063Z,241.88
2022-07-31T09:29:41.064Z,241.88
2022-07-31T09:30:56.341Z,236.25
2022-07-31T09:31:41.064Z,236.25
2022-07-31T09:32:41.068Z,236.25
2022-07-31T09:33:45.487Z,236.25
2022-07-31T09:34:41.075Z,236.25
2022-07-31T09:35:41.626Z,236.25
2022-07-31T09:36:41.074Z,236.25
2022-07-31T09:37:41.075Z,236.25
2022-07-31T09:38:41.091Z,236.25
2022-07-31T09:39:52.259Z,236.25
2022-07-31T09:40:55.204Z,236.25
2022-07-31T09:42:01.477Z,236.25
2022-07-31T09:42:45.556Z,236.25
2022-07-31T09:43:48.433Z,236.25
2022-07-31T09:44:41.088Z,236.25
2022-07-31T09:45:48.084Z,236.25
2022-07-31T09:46:41.096Z,236.25
2022-07-31T09:47:41.094Z,230.63
2022-07-31T09:48:41.097Z,225.00
2022-07-31T09:49:41.271Z,225.00
2022-07-31T09:50:41.098Z,225.00
2022-07-31T09:51:41.098Z,225.00
2022-07-31T09:52:41.099Z,225.00
2022-07-31T09:53:43.518Z,225.00
2022-07-31T09:54:41.103Z,225.00
2022-07-31T09:55:41.105Z,225.00
2022-07-31T09:56:41.105Z,225.00
2022-07-31T09:57:41.106Z,225.00
2022-07-31T09:58:41.114Z,225.00
2022-07-31T09:59:41.112Z,225.00
2022-07-31T10:00:41.187Z,225.00
2022-07-31T10:01:41.116Z,225.00
2022-07-31T10:02:41.116Z,225.00
2022-07-31T10:03:41.128Z,225.00
2022-07-31T10:04:41.120Z,230.63
2022-07-31T10:05:41.121Z,230.63
2022-07-31T10:06:41.123Z,230.63
2022-07-31T10:07:41.122Z,236.25
2022-07-31T10:08:41.124Z,236.25
2022-07-31T10:09:41.135Z,241.88
2022-07-31T10:10:41.131Z,241.88
2022-07-31T10:11:41.132Z,241.88
2022-07-31T10:12:41.130Z,241.88
2022-07-31T10:13:42.367Z,241.88
2022-07-31T10:14:41.138Z,241.88
2022-07-31T10:15:41.136Z,241.88
2022-07-31T10:16:41.140Z,241.88
2022-07-31T10:17:41.142Z,241.88
2022-07-31T10:18:44.303Z,241.88
2022-07-31T10:19:41.145Z,241.88
2022-07-31T10:20:41.146Z,241.88
2022-07-31T10:21:41.148Z,241.88
2022-07-31T10:22:41.149Z,241.88
2022-07-31T10:23:41.151Z,241.88
2022-07-31T10:24:41.150Z,241.88
2022-07-31T10:25:41.154Z,241.88
2022-07-31T10:27:10.936Z,241.88
2022-07-31T10:27:41.155Z,241.88
2022-07-31T10:28:41.158Z,236.25
2022-07-31T10:29:41.158Z,236.25
2022-07-31T10:30:41.159Z,230.63
2022-07-31T10:31:41.165Z,225.00
2022-07-31T10:32:41.168Z,225.00
2022-07-31T10:33:43.927Z,208.13
2022-07-31T10:34:41.170Z,180.00
2022-07-31T10:35:41.175Z,208.13
2022-07-31T10:36:41.178Z,219.38
2022-07-31T10:37:41.169Z,219.38
2022-07-31T10:38:41.299Z,219.38
2022-07-31T10:39:41.173Z,219.38
2022-07-31T10:40:41.174Z,219.38
2022-07-31T10:41:41.175Z,219.38
2022-07-31T10:42:41.178Z,213.75
2022-07-31T10:43:41.178Z,213.75
2022-07-31T10:44:41.179Z,213.75
2022-07-31T10:45:41.181Z,213.75
2022-07-31T10:46:41.186Z,208.13
2022-07-31T10:47:48.023Z,213.75
2022-07-31T10:48:41.183Z,213.75
2022-07-31T10:49:41.226Z,213.75
2022-07-31T10:50:41.187Z,213.75
2022-07-31T10:51:41.188Z,225.00
2022-07-31T10:52:41.219Z,202.50
2022-07-31T10:53:50.869Z,208.13
2022-07-31T10:54:41.191Z,196.88
2022-07-31T10:55:41.196Z,219.38
2022-07-31T10:56:41.196Z,213.75
2022-07-31T10:57:56.572Z,219.38
2022-07-31T10:58:41.196Z,219.38
2022-07-31T10:59:44.585Z,219.38
2022-07-31T11:00:41.198Z,219.38
2022-07-31T11:01:41.265Z,225.00
2022-07-31T11:02:41.264Z,230.63
2022-07-31T11:03:41.208Z,241.88
2022-07-31T11:04:41.204Z,230.63
2022-07-31T11:06:01.981Z,225.00
2022-07-31T11:06:41.210Z,202.50
2022-07-31T11:07:41.209Z,191.25
2022-07-31T11:08:41.214Z,213.75
2022-07-31T11:09:50.348Z,236.25
2022-07-31T11:10:41.215Z,236.25
2022-07-31T11:11:41.215Z,241.88
2022-07-31T11:12:41.216Z,247.50
2022-07-31T11:13:41.219Z,247.50
2022-07-31T11:14:41.220Z,247.50
2022-07-31T11:15:41.220Z,247.50
2022-07-31T11:16:41.220Z,213.75
2022-07-31T11:18:22.528Z,247.50
2022-07-31T11:18:41.228Z,253.13
2022-07-31T11:19:41.573Z,264.38
2022-07-31T11:20:41.229Z,270.00
2022-07-31T11:21:41.232Z,275.63
2022-07-31T11:22:41.233Z,247.50
2022-07-31T11:23:41.236Z,337.50
2022-07-31T11:24:41.236Z,410.63
2022-07-31T11:25:41.236Z,444.38
2022-07-31T11:26:42.310Z,495.00
2022-07-31T11:27:41.240Z,540.00
2022-07-31T11:28:41.242Z,478.13
2022-07-31T11:29:59.265Z,438.75
2022-07-31T11:30:41.246Z,444.38
2022-07-31T11:31:41.247Z,450.00
2022-07-31T11:32:41.250Z,376.88
2022-07-31T11:33:42.727Z,376.88
2022-07-31T11:34:41.250Z,365.63
2022-07-31T11:35:41.254Z,343.13
2022-07-31T11:36:41.260Z,331.88
2022-07-31T11:37:57.021Z,354.38
2022-07-31T11:38:41.261Z,309.38
2022-07-31T11:39:41.265Z,281.25
2022-07-31T11:40:41.265Z,264.38
2022-07-31T11:41:44.591Z,258.75
2022-07-31T11:42:41.269Z,258.75
2022-07-31T11:43:41.270Z,258.75
2022-07-31T11:44:41.269Z,247.50
2022-07-31T11:45:41.273Z,241.88
2022-07-31T11:46:41.273Z,230.63
2022-07-31T11:48:11.565Z,230.63
2022-07-31T11:48:45.401Z,230.63
2022-07-31T11:49:49.149Z,236.25
2022-07-31T11:50:41.283Z,247.50
2022-07-31T11:51:41.292Z,270.00
2022-07-31T11:52:41.288Z,281.25
2022-07-31T11:53:41.288Z,275.63
2022-07-31T11:54:41.287Z,275.63
2022-07-31T11:55:41.296Z,286.88
2022-07-31T11:56:41.293Z,331.88
2022-07-31T11:57:51.662Z,343.13
2022-07-31T11:58:41.298Z,348.75
2022-07-31T11:59:45.808Z,376.88
2022-07-31T12:00:41.302Z,405.00
2022-07-31T12:01:41.304Z,416.25
2022-07-31T12:02:41.348Z,421.88
2022-07-31T12:03:41.310Z,405.00
2022-07-31T12:04:41.310Z,376.88
2022-07-31T12:05:41.314Z,360.00
2022-07-31T12:06:41.316Z,348.75
2022-07-31T12:07:41.320Z,298.13
2022-07-31T12:08:41.319Z,286.88
2022-07-31T12:10:01.177Z,286.88
2022-07-31T12:10:41.326Z,286.88
2022-07-31T12:11:41.328Z,286.88
2022-07-31T12:12:41.331Z,281.25
2022-07-31T12:13:41.331Z,270.00
2022-07-31T12:14:41.335Z,258.75
2022-07-31T12:15:41.336Z,253.13
2022-07-31T12:16:41.339Z,258.75
2022-07-31T12:17:41.340Z,270.00
2022-07-31T12:18:41.343Z,286.88
2022-07-31T12:19:41.347Z,292.50
2022-07-31T12:20:41.346Z,298.13
2022-07-31T12:21:41.349Z,298.13
2022-07-31T12:22:41.354Z,298.13
2022-07-31T12:23:42.026Z,292.50
2022-07-31T12:24:41.357Z,286.88
2022-07-31T12:25:41.358Z,281.25
2022-07-31T12:26:41.358Z,281.25
2022-07-31T12:27:41.361Z,286.88
2022-07-31T12:28:41.359Z,286.88
2022-07-31T12:29:41.364Z,292.50
2022-07-31T12:30:41.365Z,298.13
2022-07-31T12:31:41.378Z,309.38
2022-07-31T12:32:41.370Z,337.50
2022-07-31T12:33:41.371Z,331.88
2022-07-31T12:34:41.376Z,354.38
2022-07-31T12:35:55.051Z,399.38
2022-07-31T12:36:41.377Z,410.63
2022-07-31T12:37:41.383Z,421.88
2022-07-31T12:38:45.518Z,416.25